sensor_id;sensor_type;location;lat;lon;timestamp;P1;durP1;ratioP1;P2;durP2;ratioP2
56171;SDS011;42052;41.634;-0.946;2022-12-11T00:02:20;2.42;;;0.60;;
56171;SDS011;42052;41.634;-0.946;2022-12-11T00:05:06;4.43;;;0.60;;
56171;SDS011;42052;41.634;-0.946;2022-12-11T00:07:52;2.20;;;0.50;;
56171;SDS011;42052;41.634;-0.946;2022-12-11T00:10:38;0.63;;;0.57;;
56171;SDS011;42052;41.634;-0.946;2022-12-11T00:13:31;0.57;;;0.40;;
56171;SDS011;42052;41.634;-0.946;2022-12-11T00:16:17;0.50;;;0.50;;
56171;SDS011;42052;41.634;-0.946;2022-12-11T00:19:03;2.15;;;0.85;;
56171;SDS011;42052;41.634;-0.946;2022-12-11T00:21:50;0.50;;;0.45;;
56171;SDS011;42052;41.634;-0.946;2022-12-11T00:24:36;2.15;;;0.77;;
56171;SDS011;42052;41.634;-0.946;2022-12-11T00:27:22;0.85;;;0.70;;
56171;SDS011;42052;41.634;-0.946;2022-12-11T00:30:08;1.00;;;0.70;;
56171;SDS011;42052;41.634;-0.946;2022-12-11T00:32:55;0.80;;;0.70;;
56171;SDS011;42052;41.634;-0.946;2022-12-11T00:35:41;1.58;;;0.70;;
56171;SDS011;42052;41.634;-0.946;2022-12-11T00:38:29;0.90;;;0.60;;
56171;SDS011;42052;41.634;-0.946;2022-12-11T00:41:15;2.40;;;1.10;;
56171;SDS011;42052;41.634;-0.946;2022-12-11T00:44:02;1.08;;;0.75;;
56171;SDS011;42052;41.634;-0.946;2022-12-11T00:46:48;1.30;;;0.90;;
56171;SDS011;42052;41.634;-0.946;2022-12-11T00:49:34;2.28;;;0.85;;
56171;SDS011;42052;41.634;-0.946;2022-12-11T00:52:21;0.93;;;0.80;;
56171;SDS011;42052;41.634;-0.946;2022-12-11T00:55:07;1.27;;;0.68;;
56171;SDS011;42052;41.634;-0.946;2022-12-11T00:57:53;1.20;;;0.90;;
56171;SDS011;42052;41.634;-0.946;2022-12-11T01:00:41;1.83;;;0.90;;
56171;SDS011;42052;41.634;-0.946;2022-12-11T01:03:27;1.90;;;0.85;;
56171;SDS011;42052;41.634;-0.946;2022-12-11T01:06:20;2.45;;;0.82;;
56171;SDS011;42052;41.634;-0.946;2022-12-11T01:09:08;1.50;;;0.80;;
56171;SDS011;42052;41.634;-0.946;2022-12-11T01:12:13;0.93;;;0.80;;
56171;SDS011;42052;41.634;-0.946;2022-12-11T01:14:59;0.88;;;0.82;;
56171;SDS011;42052;41.634;-0.946;2022-12-11T01:17:45;1.35;;;1.00;;
56171;SDS011;42052;41.634;-0.946;2022-12-11T01:20:31;1.52;;;1.00;;
56171;SDS011;42052;41.634;-0.946;2022-12-11T01:23:17;1.77;;;0.88;;
56171;SDS011;42052;41.634;-0.946;2022-12-11T01:26:13;2.03;;;0.80;;
56171;SDS011;42052;41.634;-0.946;2022-12-11T01:28:59;1.75;;;0.82;;
56171;SDS011;42052;41.634;-0.946;2022-12-11T01:31:46;1.50;;;1.00;;
56171;SDS011;42052;41.634;-0.946;2022-12-11T01:34:32;1.38;;;1.00;;
56171;SDS011;42052;41.634;-0.946;2022-12-11T01:37:18;1.17;;;0.88;;
56171;SDS011;42052;41.634;-0.946;2022-12-11T01:40:04;1.50;;;0.90;;
56171;SDS011;42052;41.634;-0.946;2022-12-11T01:42:51;1.30;;;0.90;;
56171;SDS011;42052;41.634;-0.946;2022-12-11T01:45:38;1.10;;;0.90;;
56171;SDS011;42052;41.634;-0.946;2022-12-11T01:48:27;1.52;;;1.00;;
56171;SDS011;42052;41.634;-0.946;2022-12-11T01:51:15;2.58;;;0.90;;
56171;SDS011;42052;41.634;-0.946;2022-12-11T01:54:03;2.38;;;0.90;;
56171;SDS011;42052;41.634;-0.946;2022-12-11T01:56:53;2.20;;;0.90;;
56171;SDS011;42052;41.634;-0.946;2022-12-11T01:59:44;1.02;;;0.93;;
56171;SDS011;42052;41.634;-0.946;2022-12-11T02:02:30;1.30;;;0.90;;
56171;SDS011;42052;41.634;-0.946;2022-12-11T02:05:18;1.33;;;1.00;;
56171;SDS011;42052;41.634;-0.946;2022-12-11T02:08:05;1.67;;;0.90;;
56171;SDS011;42052;41.634;-0.946;2022-12-11T02:11:11;2.70;;;0.90;;
56171;SDS011;42052;41.634;-0.946;2022-12-11T02:14:12;1.15;;;1.00;;
56171;SDS011;42052;41.634;-0.946;2022-12-11T02:20:10;1.05;;;0.90;;
56171;SDS011;42052;41.634;-0.946;2022-12-11T02:31:40;1.42;;;1.10;;
56171;SDS011;42052;41.634;-0.946;2022-12-11T02:37:29;0.82;;;0.82;;
56171;SDS011;42052;41.634;-0.946;2022-12-11T02:40:18;1.20;;;0.90;;
56171;SDS011;42052;41.634;-0.946;2022-12-11T02:43:10;2.00;;;0.95;;
56171;SDS011;42052;41.634;-0.946;2022-12-11T02:45:58;1.80;;;1.27;;
56171;SDS011;42052;41.634;-0.946;2022-12-11T02:48:47;1.13;;;1.00;;
56171;SDS011;42052;41.634;-0.946;2022-12-11T02:51:37;1.50;;;1.00;;
56171;SDS011;42052;41.634;-0.946;2022-12-11T02:54:26;1.15;;;0.98;;
56171;SDS011;42052;41.634;-0.946;2022-12-11T02:57:17;1.55;;;1.00;;
56171;SDS011;42052;41.634;-0.946;2022-12-11T03:00:14;1.83;;;1.08;;
56171;SDS011;42052;41.634;-0.946;2022-12-11T03:03:01;1.95;;;1.20;;
56171;SDS011;42052;41.634;-0.946;2022-12-11T03:05:47;2.75;;;1.00;;
56171;SDS011;42052;41.634;-0.946;2022-12-11T03:08:33;1.13;;;1.00;;
56171;SDS011;42052;41.634;-0.946;2022-12-11T03:11:20;1.65;;;1.20;;
56171;SDS011;42052;41.634;-0.946;2022-12-11T03:14:06;1.48;;;1.00;;
56171;SDS011;42052;41.634;-0.946;2022-12-11T03:17:02;3.35;;;1.30;;
56171;SDS011;42052;41.634;-0.946;2022-12-11T03:20:01;1.75;;;1.20;;
56171;SDS011;42052;41.634;-0.946;2022-12-11T03:23:01;1.65;;;1.08;;
56171;SDS011;42052;41.634;-0.946;2022-12-11T03:25:56;1.42;;;1.02;;
56171;SDS011;42052;41.634;-0.946;2022-12-11T03:28:48;2.13;;;1.20;;
56171;SDS011;42052;41.634;-0.946;2022-12-11T03:31:54;1.27;;;1.10;;
56171;SDS011;42052;41.634;-0.946;2022-12-11T03:34:49;1.27;;;0.98;;
56171;SDS011;42052;41.634;-0.946;2022-12-11T03:37:42;1.50;;;1.20;;
56171;SDS011;42052;41.634;-0.946;2022-12-11T03:40:31;1.35;;;1.08;;
56171;SDS011;42052;41.634;-0.946;2022-12-11T03:43:20;2.10;;;1.10;;
56171;SDS011;42052;41.634;-0.946;2022-12-11T03:46:07;1.48;;;1.20;;
56171;SDS011;42052;41.634;-0.946;2022-12-11T03:48:55;2.25;;;1.00;;
56171;SDS011;42052;41.634;-0.946;2022-12-11T03:51:46;1.17;;;1.08;;
56171;SDS011;42052;41.634;-0.946;2022-12-11T03:54:34;1.10;;;1.00;;
56171;SDS011;42052;41.634;-0.946;2022-12-11T03:57:23;1.80;;;1.00;;
56171;SDS011;42052;41.634;-0.946;2022-12-11T04:00:14;2.80;;;1.10;;
56171;SDS011;42052;41.634;-0.946;2022-12-11T04:03:02;2.65;;;1.10;;
56171;SDS011;42052;41.634;-0.946;2022-12-11T04:05:58;1.35;;;1.15;;
56171;SDS011;42052;41.634;-0.946;2022-12-11T04:08:44;1.60;;;1.13;;
56171;SDS011;42052;41.634;-0.946;2022-12-11T04:11:30;1.27;;;1.13;;
56171;SDS011;42052;41.634;-0.946;2022-12-11T04:14:19;1.90;;;1.05;;
56171;SDS011;42052;41.634;-0.946;2022-12-11T04:17:24;1.35;;;1.10;;
56171;SDS011;42052;41.634;-0.946;2022-12-11T04:20:28;1.73;;;1.23;;
56171;SDS011;42052;41.634;-0.946;2022-12-11T04:23:33;1.45;;;1.10;;
56171;SDS011;42052;41.634;-0.946;2022-12-11T04:26:37;3.15;;;1.20;;
56171;SDS011;42052;41.634;-0.946;2022-12-11T04:29:24;7.28;;;1.30;;
56171;SDS011;42052;41.634;-0.946;2022-12-11T04:32:10;1.98;;;1.10;;
56171;SDS011;42052;41.634;-0.946;2022-12-11T04:34:56;1.45;;;1.00;;
56171;SDS011;42052;41.634;-0.946;2022-12-11T04:37:42;1.33;;;1.00;;
56171;SDS011;42052;41.634;-0.946;2022-12-11T04:40:28;1.38;;;1.10;;
56171;SDS011;42052;41.634;-0.946;2022-12-11T04:43:14;1.25;;;0.90;;
56171;SDS011;42052;41.634;-0.946;2022-12-11T04:46:04;1.20;;;0.90;;
56171;SDS011;42052;41.634;-0.946;2022-12-11T04:48:51;1.27;;;1.00;;
56171;SDS011;42052;41.634;-0.946;2022-12-11T04:51:37;1.42;;;1.13;;
56171;SDS011;42052;41.634;-0.946;2022-12-11T04:54:23;1.80;;;1.20;;
56171;SDS011;42052;41.634;-0.946;2022-12-11T04:57:09;2.83;;;1.20;;
56171;SDS011;42052;41.634;-0.946;2022-12-11T04:59:55;1.05;;;0.93;;
56171;SDS011;42052;41.634;-0.946;2022-12-11T05:02:41;1.17;;;1.00;;
56171;SDS011;42052;41.634;-0.946;2022-12-11T05:05:27;1.67;;;1.00;;
56171;SDS011;42052;41.634;-0.946;2022-12-11T05:08:13;1.10;;;0.95;;
56171;SDS011;42052;41.634;-0.946;2022-12-11T05:11:01;1.20;;;1.00;;
56171;SDS011;42052;41.634;-0.946;2022-12-11T05:13:50;2.42;;;1.20;;
56171;SDS011;42052;41.634;-0.946;2022-12-11T05:16:36;2.55;;;1.00;;
56171;SDS011;42052;41.634;-0.946;2022-12-11T05:19:22;1.25;;;1.10;;
56171;SDS011;42052;41.634;-0.946;2022-12-11T05:22:09;1.85;;;1.10;;
56171;SDS011;42052;41.634;-0.946;2022-12-11T05:24:55;1.30;;;1.10;;
56171;SDS011;42052;41.634;-0.946;2022-12-11T05:27:41;1.65;;;1.17;;
56171;SDS011;42052;41.634;-0.946;2022-12-11T05:30:27;0.95;;;0.93;;
56171;SDS011;42052;41.634;-0.946;2022-12-11T05:33:13;1.10;;;0.88;;
56171;SDS011;42052;41.634;-0.946;2022-12-11T05:35:59;1.40;;;1.02;;
56171;SDS011;42052;41.634;-0.946;2022-12-11T05:38:46;2.40;;;1.10;;
56171;SDS011;42052;41.634;-0.946;2022-12-11T05:41:32;1.40;;;1.10;;
56171;SDS011;42052;41.634;-0.946;2022-12-11T05:44:18;1.30;;;0.98;;
56171;SDS011;42052;41.634;-0.946;2022-12-11T05:47:04;1.30;;;0.95;;
56171;SDS011;42052;41.634;-0.946;2022-12-11T05:49:51;1.35;;;1.10;;
56171;SDS011;42052;41.634;-0.946;2022-12-11T05:52:37;1.23;;;1.00;;
56171;SDS011;42052;41.634;-0.946;2022-12-11T05:55:23;1.25;;;1.10;;
56171;SDS011;42052;41.634;-0.946;2022-12-11T05:58:09;1.58;;;1.05;;
56171;SDS011;42052;41.634;-0.946;2022-12-11T06:00:55;1.08;;;0.98;;
56171;SDS011;42052;41.634;-0.946;2022-12-11T06:03:41;1.15;;;0.90;;
56171;SDS011;42052;41.634;-0.946;2022-12-11T06:06:27;1.88;;;1.20;;
56171;SDS011;42052;41.634;-0.946;2022-12-11T06:09:14;1.02;;;0.80;;
56171;SDS011;42052;41.634;-0.946;2022-12-11T06:12:01;0.95;;;0.90;;
56171;SDS011;42052;41.634;-0.946;2022-12-11T06:14:47;1.20;;;1.10;;
56171;SDS011;42052;41.634;-0.946;2022-12-11T06:17:33;1.00;;;0.90;;
56171;SDS011;42052;41.634;-0.946;2022-12-11T06:20:19;2.08;;;1.02;;
56171;SDS011;42052;41.634;-0.946;2022-12-11T06:23:05;1.00;;;0.90;;
56171;SDS011;42052;41.634;-0.946;2022-12-11T06:25:51;1.42;;;1.10;;
56171;SDS011;42052;41.634;-0.946;2022-12-11T06:28:38;1.80;;;1.10;;
56171;SDS011;42052;41.634;-0.946;2022-12-11T06:31:24;1.20;;;0.93;;
56171;SDS011;42052;41.634;-0.946;2022-12-11T06:34:11;1.38;;;1.00;;
56171;SDS011;42052;41.634;-0.946;2022-12-11T06:36:57;1.40;;;1.00;;
56171;SDS011;42052;41.634;-0.946;2022-12-11T06:39:44;1.20;;;0.90;;
56171;SDS011;42052;41.634;-0.946;2022-12-11T06:42:30;1.30;;;0.90;;
56171;SDS011;42052;41.634;-0.946;2022-12-11T06:45:16;1.15;;;1.00;;
56171;SDS011;42052;41.634;-0.946;2022-12-11T06:48:02;1.15;;;0.85;;
56171;SDS011;42052;41.634;-0.946;2022-12-11T06:50:48;1.33;;;1.10;;
56171;SDS011;42052;41.634;-0.946;2022-12-11T06:53:34;1.65;;;1.00;;
56171;SDS011;42052;41.634;-0.946;2022-12-11T06:56:21;1.00;;;0.73;;
56171;SDS011;42052;41.634;-0.946;2022-12-11T06:59:10;1.88;;;0.93;;
56171;SDS011;42052;41.634;-0.946;2022-12-11T07:01:57;1.83;;;1.13;;
56171;SDS011;42052;41.634;-0.946;2022-12-11T07:04:43;1.10;;;1.00;;
56171;SDS011;42052;41.634;-0.946;2022-12-11T07:07:29;1.10;;;1.00;;
56171;SDS011;42052;41.634;-0.946;2022-12-11T07:10:15;2.35;;;1.00;;
56171;SDS011;42052;41.634;-0.946;2022-12-11T07:13:01;1.30;;;1.00;;
56171;SDS011;42052;41.634;-0.946;2022-12-11T07:15:47;1.15;;;1.05;;
56171;SDS011;42052;41.634;-0.946;2022-12-11T07:18:33;1.20;;;0.80;;
56171;SDS011;42052;41.634;-0.946;2022-12-11T07:21:19;1.70;;;1.10;;
56171;SDS011;42052;41.634;-0.946;2022-12-11T07:24:06;1.35;;;1.02;;
56171;SDS011;42052;41.634;-0.946;2022-12-11T07:26:52;1.60;;;1.25;;
56171;SDS011;42052;41.634;-0.946;2022-12-11T07:29:38;1.30;;;0.98;;
56171;SDS011;42052;41.634;-0.946;2022-12-11T07:32:24;0.88;;;0.80;;
56171;SDS011;42052;41.634;-0.946;2022-12-11T07:35:10;2.75;;;1.10;;
56171;SDS011;42052;41.634;-0.946;2022-12-11T07:37:56;1.30;;;1.20;;
56171;SDS011;42052;41.634;-0.946;2022-12-11T07:40:44;1.27;;;1.17;;
56171;SDS011;42052;41.634;-0.946;2022-12-11T07:43:30;1.42;;;1.05;;
56171;SDS011;42052;41.634;-0.946;2022-12-11T07:46:19;1.50;;;1.20;;
56171;SDS011;42052;41.634;-0.946;2022-12-11T07:49:06;1.38;;;1.05;;
56171;SDS011;42052;41.634;-0.946;2022-12-11T07:51:53;1.75;;;1.20;;
56171;SDS011;42052;41.634;-0.946;2022-12-11T07:54:39;1.67;;;1.35;;
56171;SDS011;42052;41.634;-0.946;2022-12-11T07:57:25;1.58;;;1.27;;
56171;SDS011;42052;41.634;-0.946;2022-12-11T08:00:12;1.73;;;1.30;;
56171;SDS011;42052;41.634;-0.946;2022-12-11T08:02:59;1.92;;;1.48;;
56171;SDS011;42052;41.634;-0.946;2022-12-11T08:05:47;1.25;;;1.13;;
56171;SDS011;42052;41.634;-0.946;2022-12-11T08:08:34;4.82;;;1.38;;
56171;SDS011;42052;41.634;-0.946;2022-12-11T08:11:20;1.98;;;1.30;;
56171;SDS011;42052;41.634;-0.946;2022-12-11T08:14:06;2.65;;;1.42;;
56171;SDS011;42052;41.634;-0.946;2022-12-11T08:16:53;2.22;;;1.23;;
56171;SDS011;42052;41.634;-0.946;2022-12-11T08:19:41;2.83;;;1.30;;
56171;SDS011;42052;41.634;-0.946;2022-12-11T08:22:27;1.63;;;1.40;;
56171;SDS011;42052;41.634;-0.946;2022-12-11T08:25:13;3.22;;;1.40;;
56171;SDS011;42052;41.634;-0.946;2022-12-11T08:28:00;1.85;;;1.40;;
56171;SDS011;42052;41.634;-0.946;2022-12-11T08:30:46;3.47;;;1.40;;
56171;SDS011;42052;41.634;-0.946;2022-12-11T08:33:32;2.65;;;1.55;;
56171;SDS011;42052;41.634;-0.946;2022-12-11T08:36:19;3.25;;;1.58;;
56171;SDS011;42052;41.634;-0.946;2022-12-11T08:39:06;1.67;;;1.23;;
56171;SDS011;42052;41.634;-0.946;2022-12-11T08:41:52;1.45;;;1.30;;
56171;SDS011;42052;41.634;-0.946;2022-12-11T08:44:38;2.05;;;1.20;;
56171;SDS011;42052;41.634;-0.946;2022-12-11T08:47:24;2.60;;;1.20;;
56171;SDS011;42052;41.634;-0.946;2022-12-11T08:50:11;1.50;;;1.40;;
56171;SDS011;42052;41.634;-0.946;2022-12-11T08:52:57;1.60;;;1.30;;
56171;SDS011;42052;41.634;-0.946;2022-12-11T08:55:43;2.10;;;1.48;;
56171;SDS011;42052;41.634;-0.946;2022-12-11T08:58:29;2.63;;;1.30;;
56171;SDS011;42052;41.634;-0.946;2022-12-11T09:01:17;2.95;;;1.60;;
56171;SDS011;42052;41.634;-0.946;2022-12-11T09:04:05;1.40;;;1.17;;
56171;SDS011;42052;41.634;-0.946;2022-12-11T09:06:52;2.28;;;1.70;;
56171;SDS011;42052;41.634;-0.946;2022-12-11T09:09:38;3.03;;;1.52;;
56171;SDS011;42052;41.634;-0.946;2022-12-11T09:12:24;2.15;;;1.40;;
56171;SDS011;42052;41.634;-0.946;2022-12-11T09:15:10;1.85;;;1.20;;
56171;SDS011;42052;41.634;-0.946;2022-12-11T09:17:56;2.25;;;1.48;;
56171;SDS011;42052;41.634;-0.946;2022-12-11T09:20:42;2.00;;;1.40;;
56171;SDS011;42052;41.634;-0.946;2022-12-11T09:23:28;1.77;;;1.23;;
56171;SDS011;42052;41.634;-0.946;2022-12-11T09:26:15;1.67;;;1.33;;
56171;SDS011;42052;41.634;-0.946;2022-12-11T09:29:02;2.28;;;1.35;;
56171;SDS011;42052;41.634;-0.946;2022-12-11T09:31:49;2.45;;;1.45;;
56171;SDS011;42052;41.634;-0.946;2022-12-11T09:34:35;1.92;;;1.25;;
56171;SDS011;42052;41.634;-0.946;2022-12-11T09:37:21;1.77;;;1.40;;
56171;SDS011;42052;41.634;-0.946;2022-12-11T09:40:08;1.30;;;1.20;;
56171;SDS011;42052;41.634;-0.946;2022-12-11T09:45:53;2.97;;;1.35;;
56171;SDS011;42052;41.634;-0.946;2022-12-11T09:48:41;2.22;;;1.25;;
56171;SDS011;42052;41.634;-0.946;2022-12-11T09:51:37;2.45;;;1.20;;
56171;SDS011;42052;41.634;-0.946;2022-12-11T09:54:26;1.45;;;1.30;;
56171;SDS011;42052;41.634;-0.946;2022-12-11T10:00:38;2.10;;;1.38;;
56171;SDS011;42052;41.634;-0.946;2022-12-11T10:10:19;20.17;;;2.35;;
56171;SDS011;42052;41.634;-0.946;2022-12-11T10:18:56;16.73;;;2.40;;
56171;SDS011;42052;41.634;-0.946;2022-12-11T10:21:44;16.80;;;2.08;;
56171;SDS011;42052;41.634;-0.946;2022-12-11T10:27:30;15.65;;;2.92;;
56171;SDS011;42052;41.634;-0.946;2022-12-11T10:30:19;22.20;;;2.83;;
56171;SDS011;42052;41.634;-0.946;2022-12-11T10:33:22;21.90;;;2.72;;
56171;SDS011;42052;41.634;-0.946;2022-12-11T10:39:20;10.00;;;2.25;;
56171;SDS011;42052;41.634;-0.946;2022-12-11T10:42:25;13.38;;;2.00;;
56171;SDS011;42052;41.634;-0.946;2022-12-11T10:45:14;11.52;;;2.25;;
56171;SDS011;42052;41.634;-0.946;2022-12-11T10:48:02;16.17;;;2.50;;
56171;SDS011;42052;41.634;-0.946;2022-12-11T10:51:23;9.77;;;2.15;;
56171;SDS011;42052;41.634;-0.946;2022-12-11T10:54:15;9.33;;;1.73;;
56171;SDS011;42052;41.634;-0.946;2022-12-11T10:57:09;10.20;;;1.85;;
56171;SDS011;42052;41.634;-0.946;2022-12-11T10:59:58;5.03;;;1.58;;
56171;SDS011;42052;41.634;-0.946;2022-12-11T11:02:45;9.30;;;1.60;;
56171;SDS011;42052;41.634;-0.946;2022-12-11T11:05:35;10.18;;;1.92;;
56171;SDS011;42052;41.634;-0.946;2022-12-11T11:08:22;8.02;;;1.98;;
56171;SDS011;42052;41.634;-0.946;2022-12-11T11:11:25;3.30;;;1.70;;
56171;SDS011;42052;41.634;-0.946;2022-12-11T11:14:14;5.65;;;1.58;;
56171;SDS011;42052;41.634;-0.946;2022-12-11T11:17:01;3.95;;;1.80;;
56171;SDS011;42052;41.634;-0.946;2022-12-11T11:19:47;6.18;;;1.60;;
56171;SDS011;42052;41.634;-0.946;2022-12-11T11:22:36;8.40;;;1.80;;
56171;SDS011;42052;41.634;-0.946;2022-12-11T11:25:27;8.53;;;1.87;;
56171;SDS011;42052;41.634;-0.946;2022-12-11T11:28:25;8.05;;;1.65;;
56171;SDS011;42052;41.634;-0.946;2022-12-11T11:31:35;5.00;;;1.50;;
56171;SDS011;42052;41.634;-0.946;2022-12-11T11:34:21;4.95;;;1.60;;
56171;SDS011;42052;41.634;-0.946;2022-12-11T11:37:24;5.55;;;1.70;;
56171;SDS011;42052;41.634;-0.946;2022-12-11T11:40:18;3.38;;;1.55;;
56171;SDS011;42052;41.634;-0.946;2022-12-11T11:43:19;4.65;;;1.50;;
56171;SDS011;42052;41.634;-0.946;2022-12-11T11:46:13;1.92;;;1.38;;
56171;SDS011;42052;41.634;-0.946;2022-12-11T11:52:41;4.60;;;1.40;;
56171;SDS011;42052;41.634;-0.946;2022-12-11T11:55:40;5.30;;;1.52;;
56171;SDS011;42052;41.634;-0.946;2022-12-11T11:59:41;2.75;;;1.30;;
56171;SDS011;42052;41.634;-0.946;2022-12-11T12:02:01;5.65;;;1.45;;
56171;SDS011;42052;41.634;-0.946;2022-12-11T12:04:57;2.40;;;1.35;;
56171;SDS011;42052;41.634;-0.946;2022-12-11T12:07:49;2.45;;;1.15;;
56171;SDS011;42052;41.634;-0.946;2022-12-11T12:11:05;4.40;;;1.35;;
56171;SDS011;42052;41.634;-0.946;2022-12-11T12:26:58;2.65;;;1.20;;
56171;SDS011;42052;41.634;-0.946;2022-12-11T12:36:02;2.83;;;1.50;;
56171;SDS011;42052;41.634;-0.946;2022-12-11T12:39:02;3.28;;;1.48;;
56171;SDS011;42052;41.634;-0.946;2022-12-11T12:45:27;1.90;;;1.13;;
56171;SDS011;42052;41.634;-0.946;2022-12-11T12:48:25;2.50;;;1.10;;
56171;SDS011;42052;41.634;-0.946;2022-12-11T12:51:12;3.80;;;1.17;;
56171;SDS011;42052;41.634;-0.946;2022-12-11T12:54:01;2.67;;;1.23;;
56171;SDS011;42052;41.634;-0.946;2022-12-11T12:56:48;1.40;;;1.13;;
56171;SDS011;42052;41.634;-0.946;2022-12-11T12:59:34;1.65;;;1.13;;
56171;SDS011;42052;41.634;-0.946;2022-12-11T13:02:20;2.20;;;1.10;;
56171;SDS011;42052;41.634;-0.946;2022-12-11T13:05:18;3.65;;;1.20;;
56171;SDS011;42052;41.634;-0.946;2022-12-11T13:08:06;2.67;;;1.10;;
56171;SDS011;42052;41.634;-0.946;2022-12-11T13:11:04;1.60;;;1.10;;
56171;SDS011;42052;41.634;-0.946;2022-12-11T13:14:07;2.00;;;1.10;;
56171;SDS011;42052;41.634;-0.946;2022-12-11T13:20:13;1.20;;;1.10;;
56171;SDS011;42052;41.634;-0.946;2022-12-11T13:25:55;2.50;;;1.15;;
56171;SDS011;42052;41.634;-0.946;2022-12-11T13:34:23;1.42;;;1.02;;
56171;SDS011;42052;41.634;-0.946;2022-12-11T13:43:05;1.40;;;1.10;;
56171;SDS011;42052;41.634;-0.946;2022-12-11T13:46:04;1.10;;;1.00;;
56171;SDS011;42052;41.634;-0.946;2022-12-11T13:48:58;1.15;;;0.90;;
56171;SDS011;42052;41.634;-0.946;2022-12-11T13:51:56;1.60;;;1.00;;
56171;SDS011;42052;41.634;-0.946;2022-12-11T13:54:51;2.95;;;1.20;;
56171;SDS011;42052;41.634;-0.946;2022-12-11T13:57:44;1.85;;;1.10;;
56171;SDS011;42052;41.634;-0.946;2022-12-11T14:00:30;1.17;;;0.90;;
56171;SDS011;42052;41.634;-0.946;2022-12-11T14:03:17;1.80;;;1.10;;
56171;SDS011;42052;41.634;-0.946;2022-12-11T14:06:03;1.30;;;0.90;;
56171;SDS011;42052;41.634;-0.946;2022-12-11T14:08:54;2.00;;;1.20;;
56171;SDS011;42052;41.634;-0.946;2022-12-11T14:11:44;1.15;;;0.90;;
56171;SDS011;42052;41.634;-0.946;2022-12-11T14:14:41;2.38;;;1.23;;
56171;SDS011;42052;41.634;-0.946;2022-12-11T14:17:32;1.85;;;1.08;;
56171;SDS011;42052;41.634;-0.946;2022-12-11T14:20:23;2.78;;;0.98;;
56171;SDS011;42052;41.634;-0.946;2022-12-11T14:23:16;0.80;;;0.80;;
56171;SDS011;42052;41.634;-0.946;2022-12-11T14:28:59;1.30;;;1.00;;
56171;SDS011;42052;41.634;-0.946;2022-12-11T14:31:47;1.35;;;1.00;;
56171;SDS011;42052;41.634;-0.946;2022-12-11T14:34:34;1.08;;;0.98;;
56171;SDS011;42052;41.634;-0.946;2022-12-11T14:37:28;1.40;;;1.08;;
56171;SDS011;42052;41.634;-0.946;2022-12-11T14:40:16;1.60;;;1.00;;
56171;SDS011;42052;41.634;-0.946;2022-12-11T14:43:07;1.20;;;1.00;;
56171;SDS011;42052;41.634;-0.946;2022-12-11T14:46:00;1.67;;;0.98;;
56171;SDS011;42052;41.634;-0.946;2022-12-11T14:48:54;1.83;;;1.00;;
56171;SDS011;42052;41.634;-0.946;2022-12-11T14:51:46;2.70;;;0.98;;
56171;SDS011;42052;41.634;-0.946;2022-12-11T14:54:35;1.65;;;1.05;;
56171;SDS011;42052;41.634;-0.946;2022-12-11T14:57:25;1.15;;;0.80;;
56171;SDS011;42052;41.634;-0.946;2022-12-11T15:00:20;1.15;;;1.00;;
56171;SDS011;42052;41.634;-0.946;2022-12-11T15:06:02;1.70;;;0.93;;
56171;SDS011;42052;41.634;-0.946;2022-12-11T15:09:14;1.42;;;0.82;;
56171;SDS011;42052;41.634;-0.946;2022-12-11T15:12:11;0.90;;;0.80;;
56171;SDS011;42052;41.634;-0.946;2022-12-11T15:15:00;1.65;;;1.02;;
56171;SDS011;42052;41.634;-0.946;2022-12-11T15:17:50;1.33;;;0.75;;
56171;SDS011;42052;41.634;-0.946;2022-12-11T15:20:37;2.22;;;1.08;;
56171;SDS011;42052;41.634;-0.946;2022-12-11T15:23:23;1.67;;;0.93;;
56171;SDS011;42052;41.634;-0.946;2022-12-11T15:26:09;4.15;;;0.80;;
56171;SDS011;42052;41.634;-0.946;2022-12-11T15:28:59;2.38;;;0.90;;
56171;SDS011;42052;41.634;-0.946;2022-12-11T15:31:46;1.45;;;0.88;;
56171;SDS011;42052;41.634;-0.946;2022-12-11T15:37:33;1.00;;;0.70;;
56171;SDS011;42052;41.634;-0.946;2022-12-11T15:40:21;1.35;;;0.90;;
56171;SDS011;42052;41.634;-0.946;2022-12-11T15:43:07;1.33;;;0.90;;
56171;SDS011;42052;41.634;-0.946;2022-12-11T15:45:53;1.65;;;0.82;;
56171;SDS011;42052;41.634;-0.946;2022-12-11T15:48:39;1.27;;;1.00;;
56171;SDS011;42052;41.634;-0.946;2022-12-11T15:51:25;1.00;;;0.90;;
56171;SDS011;42052;41.634;-0.946;2022-12-11T15:54:11;2.40;;;1.10;;
56171;SDS011;42052;41.634;-0.946;2022-12-11T15:56:58;2.00;;;0.80;;
56171;SDS011;42052;41.634;-0.946;2022-12-11T15:59:48;1.13;;;1.00;;
56171;SDS011;42052;41.634;-0.946;2022-12-11T16:02:37;1.80;;;1.02;;
56171;SDS011;42052;41.634;-0.946;2022-12-11T16:05:23;1.58;;;0.88;;
56171;SDS011;42052;41.634;-0.946;2022-12-11T16:08:13;2.05;;;0.90;;
56171;SDS011;42052;41.634;-0.946;2022-12-11T16:11:00;1.42;;;0.90;;
56171;SDS011;42052;41.634;-0.946;2022-12-11T16:13:46;1.10;;;0.80;;
56171;SDS011;42052;41.634;-0.946;2022-12-11T16:16:33;2.60;;;0.90;;
56171;SDS011;42052;41.634;-0.946;2022-12-11T16:19:19;1.65;;;0.70;;
56171;SDS011;42052;41.634;-0.946;2022-12-11T16:22:05;1.70;;;1.00;;
56171;SDS011;42052;41.634;-0.946;2022-12-11T16:24:53;0.90;;;0.80;;
56171;SDS011;42052;41.634;-0.946;2022-12-11T16:27:40;1.20;;;0.82;;
56171;SDS011;42052;41.634;-0.946;2022-12-11T16:30:26;1.02;;;0.80;;
56171;SDS011;42052;41.634;-0.946;2022-12-11T16:33:13;0.95;;;0.70;;
56171;SDS011;42052;41.634;-0.946;2022-12-11T16:36:00;1.00;;;0.65;;
56171;SDS011;42052;41.634;-0.946;2022-12-11T16:38:46;1.45;;;0.93;;
56171;SDS011;42052;41.634;-0.946;2022-12-11T16:41:33;1.45;;;0.73;;
56171;SDS011;42052;41.634;-0.946;2022-12-11T16:44:21;1.55;;;0.90;;
56171;SDS011;42052;41.634;-0.946;2022-12-11T16:47:09;1.17;;;0.85;;
56171;SDS011;42052;41.634;-0.946;2022-12-11T16:49:56;1.15;;;0.75;;
56171;SDS011;42052;41.634;-0.946;2022-12-11T16:52:43;0.88;;;0.70;;
56171;SDS011;42052;41.634;-0.946;2022-12-11T16:55:30;1.50;;;0.70;;
56171;SDS011;42052;41.634;-0.946;2022-12-11T16:58:16;0.88;;;0.60;;
56171;SDS011;42052;41.634;-0.946;2022-12-11T17:01:12;1.75;;;0.70;;
56171;SDS011;42052;41.634;-0.946;2022-12-11T17:03:59;0.95;;;0.55;;
56171;SDS011;42052;41.634;-0.946;2022-12-11T17:06:46;1.10;;;0.80;;
56171;SDS011;42052;41.634;-0.946;2022-12-11T17:09:33;1.75;;;0.73;;
56171;SDS011;42052;41.634;-0.946;2022-12-11T17:12:19;1.85;;;1.00;;
56171;SDS011;42052;41.634;-0.946;2022-12-11T17:15:11;7.07;;;1.70;;
56171;SDS011;42052;41.634;-0.946;2022-12-11T17:17:57;8.88;;;2.15;;
56171;SDS011;42052;41.634;-0.946;2022-12-11T17:20:44;11.98;;;2.60;;
56171;SDS011;42052;41.634;-0.946;2022-12-11T17:23:30;12.30;;;2.92;;
56171;SDS011;42052;41.634;-0.946;2022-12-11T17:26:16;21.10;;;3.53;;
56171;SDS011;42052;41.634;-0.946;2022-12-11T17:29:02;25.45;;;4.20;;
56171;SDS011;42052;41.634;-0.946;2022-12-11T17:31:48;25.48;;;5.43;;
56171;SDS011;42052;41.634;-0.946;2022-12-11T17:34:34;27.05;;;5.65;;
56171;SDS011;42052;41.634;-0.946;2022-12-11T17:37:21;26.60;;;5.18;;
56171;SDS011;42052;41.634;-0.946;2022-12-11T17:40:07;21.02;;;5.15;;
56171;SDS011;42052;41.634;-0.946;2022-12-11T17:42:54;25.80;;;5.50;;
56171;SDS011;42052;41.634;-0.946;2022-12-11T17:45:40;20.25;;;4.85;;
56171;SDS011;42052;41.634;-0.946;2022-12-11T17:48:27;18.38;;;4.57;;
56171;SDS011;42052;41.634;-0.946;2022-12-11T17:51:14;20.75;;;4.65;;
56171;SDS011;42052;41.634;-0.946;2022-12-11T17:54:08;19.35;;;4.47;;
56171;SDS011;42052;41.634;-0.946;2022-12-11T17:56:54;23.02;;;5.10;;
56171;SDS011;42052;41.634;-0.946;2022-12-11T17:59:40;17.73;;;4.30;;
56171;SDS011;42052;41.634;-0.946;2022-12-11T18:02:26;18.65;;;3.95;;
56171;SDS011;42052;41.634;-0.946;2022-12-11T18:05:12;18.40;;;3.97;;
56171;SDS011;42052;41.634;-0.946;2022-12-11T18:07:58;15.68;;;3.47;;
56171;SDS011;42052;41.634;-0.946;2022-12-11T18:10:44;14.68;;;3.35;;
56171;SDS011;42052;41.634;-0.946;2022-12-11T18:13:30;17.48;;;3.95;;
56171;SDS011;42052;41.634;-0.946;2022-12-11T18:16:18;16.15;;;4.03;;